This is the latest recevied weather packets stored in our database for station/object N6RDS. If no packets are shown the sender has not sent any weather packets the latest 10 day(s).
| Time | Temp. | Humidity | Pressure | Rain* | Wind** | Luminosity | Snow |
|---|---|---|---|---|---|---|---|
| 1778094303 | 17.78° C | 28% | 1024.5 hPa | 0 mm | - | 875 W/m² | - |
| 1778094000 | 17.78° C | 29% | 1024.7 hPa | 0 mm | - | 860 W/m² | - |
| 1778093697 | 17.78° C | 30% | 1024.4 hPa | 0 mm | - | 844 W/m² | - |
| 1778093394 | 16.67° C | 32% | 1024.5 hPa | 0 mm | - | 818 W/m² | - |
| 1778093091 | 16.11° C | 32% | 1024.4 hPa | 0 mm | - | 814 W/m² | - |
| 1778092783 | 16.67° C | 33% | 1024.7 hPa | 0 mm | - | 819 W/m² | - |
| 1778092478 | 17.22° C | 31% | 1024.7 hPa | 0 mm | - | 813 W/m² | - |
| 1778092176 | 16.67° C | 32% | 1024.7 hPa | 0 mm | - | 794 W/m² | - |
| 1778091873 | 15.56° C | 35% | 1024.8 hPa | 0 mm | - | 782 W/m² | - |
| 1778091570 | 16.67° C | 34% | 1024.7 hPa | 0 mm | - | 764 W/m² | - |
| 1778091268 | 17.22° C | 32% | 1024.5 hPa | 0 mm | - | 758 W/m² | - |
| 1778090965 | 16.67° C | 34% | 1024.7 hPa | 0 mm | - | 753 W/m² | - |
| 1778090660 | 17.22° C | 32% | 1024.9 hPa | 0 mm | - | 751 W/m² | - |
| 1778090357 | 15.56° C | 36% | 1024.8 hPa | 0 mm | - | 735 W/m² | - |
| 1778090054 | 15° C | 37% | 1024.8 hPa | 0 mm | - | 728 W/m² | - |
| 1778089751 | 16.11° C | 35% | 1024.7 hPa | 0 mm | - | 720 W/m² | - |
| 1778089449 | 15.56° C | 35% | 1024.8 hPa | 0 mm | - | 710 W/m² | - |
| 1778089146 | 15° C | 37% | 1024.9 hPa | 0 mm | - | 700 W/m² | - |
| 1778088843 | 15° C | 37% | 1024.7 hPa | 0 mm | - | 691 W/m² | - |
| 1778088539 | 15.56° C | 37% | 1024.7 hPa | 0 mm | - | 680 W/m² | - |
| 1778088236 | 14.44° C | 38% | 1024.7 hPa | 0 mm | - | 672 W/m² | - |
| 1778087933 | 15° C | 38% | 1024.7 hPa | 0 mm | - | 664 W/m² | - |
| 1778087630 | 15° C | 37% | 1024.5 hPa | 0 mm | - | 652 W/m² | - |
| 1778087328 | 15° C | 38% | 1024.4 hPa | 0 mm | - | 639 W/m² | - |
| 1778087024 | 15.56° C | 39% | 1024.7 hPa | 0 mm | - | 630 W/m² | - |
* Rain latest hour (hover to see other rain measurements)
** Current wind speed in m/s (hover to see current wind gust speed)